createdAt,value
2022-11-29T00:01:26.586Z,2.80
2022-11-29T00:03:53.871Z,2.80
2022-11-29T00:06:23.115Z,2.78
2022-11-29T00:08:50.607Z,2.77
2022-11-29T00:11:41.997Z,2.79
2022-11-29T00:14:11.191Z,2.80
2022-11-29T00:16:40.994Z,2.84
2022-11-29T00:19:12.040Z,2.85
2022-11-29T00:21:38.884Z,2.87
2022-11-29T00:24:06.336Z,2.81
2022-11-29T00:26:33.179Z,2.72
2022-11-29T00:29:00.799Z,2.69
2022-11-29T00:31:30.721Z,2.62
2022-11-29T00:34:02.224Z,2.64
2022-11-29T00:36:30.054Z,2.66
2022-11-29T00:38:56.816Z,2.66
2022-11-29T00:41:23.585Z,2.64
2022-11-29T00:43:50.239Z,2.64
2022-11-29T00:46:17.214Z,2.68
2022-11-29T00:48:43.899Z,2.67
2022-11-29T00:51:10.601Z,2.68
2022-11-29T00:53:38.073Z,2.66
2022-11-29T00:56:06.113Z,2.69
2022-11-29T00:58:33.301Z,2.74
2022-11-29T01:00:59.997Z,2.79
2022-11-29T01:03:26.786Z,2.81
2022-11-29T01:05:53.754Z,2.85
2022-11-29T01:08:20.466Z,2.89
2022-11-29T01:10:47.195Z,2.94
2022-11-29T01:13:14.543Z,2.93
2022-11-29T01:15:41.697Z,2.96
2022-11-29T01:18:08.556Z,2.96
2022-11-29T01:20:35.240Z,2.95
2022-11-29T01:23:02.070Z,2.93
2022-11-29T01:25:29.526Z,2.93
2022-11-29T01:27:56.317Z,2.91
2022-11-29T01:30:23.041Z,2.88
2022-11-29T01:32:49.854Z,2.84
2022-11-29T01:35:16.748Z,2.88
2022-11-29T01:37:43.434Z,2.91
2022-11-29T01:40:10.547Z,2.91
2022-11-29T01:42:37.180Z,2.90
2022-11-29T01:45:23.897Z,2.92
2022-11-29T01:47:52.837Z,2.93
2022-11-29T01:50:21.198Z,2.93
2022-11-29T01:52:48.462Z,2.95
2022-11-29T01:58:00.608Z,2.93
2022-11-29T02:00:27.282Z,2.91
2022-11-29T02:03:10.322Z,2.89
2022-11-29T02:05:41.477Z,2.93
2022-11-29T02:08:09.722Z,2.96
2022-11-29T02:11:14.996Z,2.94
2022-11-29T02:13:54.565Z,2.98
2022-11-29T02:16:56.517Z,3.01
2022-11-29T02:19:45.340Z,3.03
2022-11-29T02:22:24.679Z,3.03
2022-11-29T02:25:00.448Z,3.02
2022-11-29T02:27:42.652Z,3.03
2022-11-29T02:30:24.171Z,3.05
2022-11-29T02:33:22.744Z,3.06
2022-11-29T02:35:52.368Z,3.04
2022-11-29T02:38:45.352Z,3.03
2022-11-29T02:41:18.412Z,3.01
2022-11-29T02:44:37.836Z,3.00
2022-11-29T02:47:07.013Z,2.97
2022-11-29T02:49:51.744Z,2.95
2022-11-29T02:52:28.159Z,2.96
2022-11-29T02:55:15.317Z,2.91
2022-11-29T02:58:24.257Z,2.83
2022-11-29T03:01:05.156Z,2.69
2022-11-29T03:03:56.497Z,2.75
2022-11-29T03:06:53.048Z,2.81
2022-11-29T03:09:37.139Z,2.82
2022-11-29T03:12:24.828Z,2.81
2022-11-29T03:15:11.785Z,2.80
2022-11-29T03:18:12.473Z,2.79
2022-11-29T03:20:47.836Z,2.78
2022-11-29T03:23:37.080Z,2.80
2022-11-29T03:26:26.932Z,2.77
2022-11-29T03:29:07.339Z,2.82
2022-11-29T03:31:58.273Z,2.86
2022-11-29T03:34:30.511Z,2.88
2022-11-29T03:37:06.620Z,2.89
2022-11-29T03:39:43.112Z,2.89
2022-11-29T03:43:14.597Z,2.87
2022-11-29T03:46:02.906Z,2.86
2022-11-29T03:48:35.583Z,2.85
2022-11-29T03:51:14.384Z,2.88
2022-11-29T03:53:59.906Z,2.87
2022-11-29T03:56:34.227Z,2.84
2022-11-29T03:59:42.622Z,2.86
2022-11-29T04:02:56.630Z,2.84
2022-11-29T04:05:48.478Z,2.80
2022-11-29T04:08:38.584Z,2.78
2022-11-29T04:11:23.458Z,2.82
2022-11-29T04:14:28.568Z,2.85
2022-11-29T04:17:13.852Z,2.86
2022-11-29T04:20:05.445Z,2.88
2022-11-29T04:22:43.505Z,2.85
2022-11-29T04:25:13.076Z,2.81
2022-11-29T04:28:23.296Z,2.75
2022-11-29T04:31:27.488Z,2.75
2022-11-29T04:34:21.221Z,2.70
2022-11-29T04:37:09.484Z,2.66
2022-11-29T04:39:55.966Z,2.60
2022-11-29T04:43:00.593Z,2.53
2022-11-29T04:45:52.469Z,2.55
2022-11-29T04:48:42.972Z,2.60
2022-11-29T04:51:34.919Z,2.58
2022-11-29T04:54:24.508Z,2.60
2022-11-29T04:56:59.100Z,2.64
2022-11-29T04:59:36.895Z,2.64
2022-11-29T05:02:21.961Z,2.61
2022-11-29T05:05:33.657Z,2.51
2022-11-29T05:08:14.650Z,2.44
2022-11-29T05:10:59.452Z,2.44
2022-11-29T05:13:44.649Z,2.41
2022-11-29T05:16:25.194Z,2.42
2022-11-29T05:19:07.813Z,2.41
2022-11-29T05:21:56.302Z,2.37
2022-11-29T05:24:32.051Z,2.36
2022-11-29T05:27:04.736Z,2.39
2022-11-29T05:29:42.087Z,2.47
2022-11-29T05:32:24.020Z,2.51
2022-11-29T05:35:09.236Z,2.52
2022-11-29T05:37:49.248Z,2.45
2022-11-29T05:40:48.238Z,2.39
2022-11-29T05:43:44.303Z,2.41
2022-11-29T05:46:29.951Z,2.49
2022-11-29T05:49:23.753Z,2.58
2022-11-29T05:52:00.294Z,2.69
2022-11-29T05:54:37.070Z,2.78
2022-11-29T05:57:31.571Z,2.83
2022-11-29T06:00:02.858Z,2.83
2022-11-29T06:03:13.548Z,2.83
2022-11-29T06:05:48.656Z,2.80
2022-11-29T06:08:44.740Z,2.79
2022-11-29T06:11:16.648Z,2.75
2022-11-29T06:14:07.866Z,2.73
2022-11-29T06:16:51.313Z,2.67
2022-11-29T06:19:57.137Z,2.68
2022-11-29T06:22:23.753Z,2.70
2022-11-29T06:24:53.582Z,2.74
2022-11-29T06:27:42.574Z,2.79
2022-11-29T06:30:14.231Z,2.86
2022-11-29T06:33:01.398Z,2.89
2022-11-29T06:35:59.705Z,2.86
2022-11-29T06:38:29.819Z,2.81
2022-11-29T06:41:01.769Z,2.73
2022-11-29T06:43:30.712Z,2.70
2022-11-29T06:46:03.439Z,2.67
2022-11-29T06:48:38.571Z,2.63
2022-11-29T06:51:14.258Z,2.55
2022-11-29T06:53:52.125Z,2.50
2022-11-29T06:56:35.659Z,2.44
2022-11-29T06:59:30.390Z,2.39
2022-11-29T07:02:38.068Z,2.39
2022-11-29T07:05:13.192Z,2.33
2022-11-29T07:07:42.088Z,2.31
2022-11-29T07:10:17.262Z,2.35
2022-11-29T07:12:49.094Z,2.38
2022-11-29T07:15:18.285Z,2.30
2022-11-29T07:17:57.180Z,2.16
2022-11-29T07:20:52.312Z,2.17
2022-11-29T07:23:33.414Z,2.23
2022-11-29T07:26:26.339Z,2.29
2022-11-29T07:29:19.173Z,2.24
2022-11-29T07:31:48.933Z,2.20
2022-11-29T07:34:48.709Z,2.19
2022-11-29T07:37:42.851Z,2.20
2022-11-29T07:40:37.317Z,2.22
2022-11-29T07:43:13.765Z,2.16
2022-11-29T07:45:40.698Z,2.17
2022-11-29T07:48:07.740Z,2.29
2022-11-29T07:50:35.618Z,2.41
2022-11-29T07:53:02.753Z,2.48
2022-11-29T07:55:29.913Z,2.44
2022-11-29T07:57:56.739Z,2.45
2022-11-29T08:00:23.608Z,2.51
2022-11-29T08:02:51.299Z,2.53
2022-11-29T08:05:18.562Z,2.51
2022-11-29T08:07:46.533Z,2.49
2022-11-29T08:10:16.334Z,2.51
2022-11-29T08:12:45.334Z,2.50
2022-11-29T08:15:12.585Z,2.54
2022-11-29T08:17:39.911Z,2.53
2022-11-29T08:20:08.787Z,2.53
2022-11-29T08:22:35.819Z,2.51
2022-11-29T08:25:03.491Z,2.50
2022-11-29T08:27:31.081Z,2.54
2022-11-29T08:29:57.907Z,2.56
2022-11-29T08:32:25.695Z,2.62
2022-11-29T08:34:52.736Z,2.62
2022-11-29T08:37:19.764Z,2.68
2022-11-29T08:39:46.490Z,2.70
2022-11-29T08:42:13.286Z,2.68
2022-11-29T08:44:40.185Z,2.63
2022-11-29T08:47:25.703Z,2.57
2022-11-29T08:50:01.317Z,2.56
2022-11-29T08:52:54.761Z,2.53
2022-11-29T08:55:24.102Z,2.58
2022-11-29T08:57:52.289Z,2.59
2022-11-29T09:00:21.740Z,2.53
2022-11-29T09:02:49.201Z,2.49
2022-11-29T09:05:16.446Z,2.50
2022-11-29T09:07:43.589Z,2.57
2022-11-29T09:10:12.283Z,2.65
2022-11-29T09:12:40.240Z,2.74
2022-11-29T09:15:09.351Z,2.78
2022-11-29T09:17:36.220Z,2.81
2022-11-29T09:20:04.678Z,2.87
2022-11-29T09:22:31.637Z,2.95
2022-11-29T09:24:58.575Z,2.95
2022-11-29T09:27:25.271Z,2.95
2022-11-29T09:29:52.140Z,2.97
2022-11-29T09:32:18.938Z,3.00
2022-11-29T09:34:46.189Z,3.01
2022-11-29T09:37:13.118Z,3.05
2022-11-29T09:39:41.608Z,3.09
2022-11-29T09:42:37.770Z,3.07
2022-11-29T09:45:11.230Z,3.05
2022-11-29T09:47:53.086Z,2.97
2022-11-29T09:50:54.285Z,2.97
2022-11-29T09:53:43.642Z,3.04
2022-11-29T09:56:27.134Z,3.06
2022-11-29T09:59:00.688Z,3.08
2022-11-29T10:01:33.201Z,3.12
2022-11-29T10:04:09.015Z,3.17
2022-11-29T10:06:40.900Z,3.22
2022-11-29T10:09:24.410Z,3.23
2022-11-29T10:12:06.199Z,3.20
2022-11-29T10:14:41.427Z,3.11
2022-11-29T10:17:22.924Z,3.08
2022-11-29T10:19:58.723Z,3.14
2022-11-29T10:22:56.153Z,3.22
2022-11-29T10:25:31.700Z,3.31
2022-11-29T10:27:58.726Z,3.36
2022-11-29T10:30:25.814Z,3.40
2022-11-29T10:32:58.277Z,3.44
2022-11-29T10:35:25.045Z,3.52
2022-11-29T10:38:22.722Z,3.56
2022-11-29T10:40:47.491Z,3.58
2022-11-29T10:43:14.354Z,3.61
2022-11-29T10:45:50.621Z,3.64
2022-11-29T10:48:20.065Z,3.62
2022-11-29T10:50:49.552Z,3.61
2022-11-29T10:53:22.820Z,3.59
2022-11-29T10:56:06.093Z,3.57
2022-11-29T10:58:32.896Z,3.57
2022-11-29T11:01:02.239Z,3.55
2022-11-29T11:03:41.836Z,3.55
2022-11-29T11:06:13.715Z,3.53
2022-11-29T11:08:45.410Z,3.54
2022-11-29T11:11:13.784Z,3.49
2022-11-29T11:13:44.350Z,3.43
2022-11-29T11:16:24.417Z,3.45
2022-11-29T11:18:51.286Z,3.50
2022-11-29T11:21:21.229Z,3.57
2022-11-29T11:24:02.503Z,3.57
2022-11-29T11:26:43.137Z,3.58
2022-11-29T11:29:18.241Z,3.61
2022-11-29T11:31:52.087Z,3.64
2022-11-29T11:34:34.385Z,3.65
2022-11-29T11:37:20.144Z,3.64
2022-11-29T11:39:50.371Z,3.60
2022-11-29T11:42:38.161Z,3.60
2022-11-29T11:45:11.579Z,3.57
2022-11-29T11:47:45.172Z,3.57
2022-11-29T11:50:34.890Z,3.61
2022-11-29T11:53:06.798Z,3.60
2022-11-29T11:55:38.162Z,3.56
2022-11-29T11:58:09.774Z,3.56
2022-11-29T12:01:03.878Z,3.58
2022-11-29T12:04:02.188Z,3.60
2022-11-29T12:06:42.311Z,3.66
2022-11-29T12:09:09.207Z,3.69
2022-11-29T12:12:04.988Z,3.68
2022-11-29T12:14:52.101Z,3.69
2022-11-29T12:17:43.544Z,3.70
2022-11-29T12:20:37.544Z,3.70
2022-11-29T12:23:12.837Z,3.65
2022-11-29T12:25:46.862Z,3.62
2022-11-29T12:28:20.564Z,3.57
2022-11-29T12:31:12.196Z,3.57
2022-11-29T12:34:05.777Z,3.58
2022-11-29T12:36:57.274Z,3.53
2022-11-29T12:39:43.187Z,3.48
2022-11-29T12:42:31.617Z,3.39
2022-11-29T12:45:19.776Z,3.34
2022-11-29T12:48:13.427Z,3.39
2022-11-29T12:50:48.848Z,3.44
2022-11-29T12:53:54.935Z,3.45
2022-11-29T12:57:00.180Z,3.49
2022-11-29T12:59:34.327Z,3.39
2022-11-29T13:02:17.393Z,3.34
2022-11-29T13:05:34.074Z,3.36
2022-11-29T13:08:21.394Z,3.41
2022-11-29T13:11:31.157Z,3.41
2022-11-29T13:14:44.384Z,3.42
2022-11-29T13:17:30.790Z,3.24
2022-11-29T13:20:10.645Z,3.15
2022-11-29T13:22:56.417Z,3.11
2022-11-29T13:25:36.059Z,3.05
2022-11-29T13:28:26.000Z,3.01
2022-11-29T13:30:57.049Z,3.05
2022-11-29T13:33:30.756Z,3.04
2022-11-29T13:36:12.677Z,3.05
2022-11-29T13:38:51.703Z,3.11
2022-11-29T13:41:34.218Z,3.11
2022-11-29T13:44:20.223Z,3.05
2022-11-29T13:47:05.686Z,3.00
2022-11-29T13:49:53.255Z,2.94
2022-11-29T13:52:39.883Z,2.93
2022-11-29T13:55:12.605Z,2.95
2022-11-29T14:00:44.387Z,3.07
2022-11-29T14:03:31.092Z,3.08
2022-11-29T14:06:05.148Z,3.12
2022-11-29T14:09:17.724Z,3.15
2022-11-29T14:11:54.439Z,3.17
2022-11-29T14:14:36.240Z,3.19
2022-11-29T14:17:05.985Z,3.20
2022-11-29T14:19:37.415Z,3.16
2022-11-29T14:22:06.966Z,3.15
2022-11-29T14:24:36.554Z,3.16
2022-11-29T14:27:06.191Z,3.10
2022-11-29T14:29:48.406Z,3.01
2022-11-29T14:32:25.293Z,3.01
2022-11-29T14:35:17.035Z,3.02
2022-11-29T14:37:52.666Z,3.03
2022-11-29T14:40:25.356Z,3.02
2022-11-29T14:42:52.930Z,3.04
2022-11-29T14:45:32.923Z,3.03
2022-11-29T14:48:01.975Z,3.04
2022-11-29T14:50:40.085Z,3.08
2022-11-29T14:53:27.839Z,3.06
2022-11-29T14:56:32.345Z,3.04
2022-11-29T14:59:36.614Z,3.03
2022-11-29T15:02:32.669Z,2.94
2022-11-29T15:05:25.728Z,2.88
2022-11-29T15:08:20.447Z,2.89
2022-11-29T15:10:53.681Z,2.86
2022-11-29T15:13:31.949Z,2.81
2022-11-29T15:16:38.843Z,2.73
2022-11-29T15:19:29.358Z,2.63
2022-11-29T15:22:21.405Z,2.59
2022-11-29T15:24:51.250Z,2.64
2022-11-29T15:27:18.432Z,2.69
2022-11-29T15:29:48.599Z,2.68
2022-11-29T15:32:28.263Z,2.71
2022-11-29T15:34:56.499Z,2.76
2022-11-29T15:37:24.508Z,2.73
2022-11-29T15:40:10.605Z,2.69
2022-11-29T15:42:51.467Z,2.62
2022-11-29T15:45:34.960Z,2.62
2022-11-29T15:48:14.155Z,2.62
2022-11-29T15:50:53.549Z,2.64
2022-11-29T15:53:27.637Z,2.60
2022-11-29T15:56:00.729Z,2.53
2022-11-29T15:58:29.501Z,2.55
2022-11-29T16:01:00.058Z,2.58
2022-11-29T16:03:33.201Z,2.65
2022-11-29T16:06:08.910Z,2.72
2022-11-29T16:08:42.219Z,2.72
2022-11-29T16:11:17.183Z,2.75
2022-11-29T16:14:04.572Z,2.72
2022-11-29T16:16:34.265Z,2.68
2022-11-29T16:19:16.869Z,2.65
2022-11-29T16:21:44.492Z,2.61
2022-11-29T16:24:14.286Z,2.58
2022-11-29T16:26:45.739Z,2.55
2022-11-29T16:29:27.913Z,2.57
2022-11-29T16:31:55.344Z,2.54
2022-11-29T16:34:31.399Z,2.51
2022-11-29T16:37:14.496Z,2.56
2022-11-29T16:39:46.785Z,2.61
2022-11-29T16:42:18.285Z,2.68
2022-11-29T16:44:49.150Z,2.69
2022-11-29T16:47:24.307Z,2.74
2022-11-29T16:50:03.717Z,2.74
2022-11-29T16:52:32.941Z,2.67
2022-11-29T16:55:00.229Z,2.58
2022-11-29T16:57:28.731Z,2.63
2022-11-29T16:59:55.480Z,2.69
2022-11-29T17:02:22.673Z,2.76
2022-11-29T17:04:51.783Z,2.75
2022-11-29T17:07:28.429Z,2.71
2022-11-29T17:09:56.314Z,2.66
2022-11-29T17:12:26.012Z,2.67
2022-11-29T17:14:52.717Z,2.67
2022-11-29T17:17:19.714Z,2.61
2022-11-29T17:19:47.140Z,2.60
2022-11-29T17:22:13.981Z,2.63
2022-11-29T17:24:46.233Z,2.64
2022-11-29T17:27:14.551Z,2.67
2022-11-29T17:29:41.305Z,2.64
2022-11-29T17:32:08.183Z,2.59
2022-11-29T17:34:35.299Z,2.58
2022-11-29T17:37:02.103Z,2.54
2022-11-29T17:39:28.989Z,2.47
2022-11-29T17:41:55.897Z,2.38
2022-11-29T17:44:23.201Z,2.36
2022-11-29T17:46:49.878Z,2.42
2022-11-29T17:49:18.732Z,2.48
2022-11-29T17:51:53.641Z,2.45
2022-11-29T17:54:21.633Z,2.45
2022-11-29T17:56:48.341Z,2.51
2022-11-29T17:59:15.664Z,2.52
2022-11-29T18:01:42.387Z,2.53
2022-11-29T18:04:09.351Z,2.54
2022-11-29T18:06:39.349Z,2.53
2022-11-29T18:09:08.076Z,2.53
2022-11-29T18:11:48.605Z,2.51
2022-11-29T18:14:19.202Z,2.48
2022-11-29T18:16:46.385Z,2.48
2022-11-29T18:19:16.835Z,2.50
2022-11-29T18:21:43.729Z,2.55
2022-11-29T18:24:11.112Z,2.62
2022-11-29T18:26:38.626Z,2.66
2022-11-29T18:29:06.923Z,2.66
2022-11-29T18:31:36.361Z,2.60
2022-11-29T18:34:13.117Z,2.58
2022-11-29T18:36:43.276Z,2.55
2022-11-29T18:39:19.072Z,2.53
2022-11-29T18:41:48.072Z,2.52
2022-11-29T18:44:17.113Z,2.57
2022-11-29T18:46:45.117Z,2.64
2022-11-29T18:49:16.853Z,2.71
2022-11-29T18:51:45.539Z,2.68
2022-11-29T18:54:13.913Z,2.65
2022-11-29T18:56:41.004Z,2.68
2022-11-29T18:59:11.840Z,2.68
2022-11-29T19:01:42.748Z,2.56
2022-11-29T19:04:13.350Z,2.54
2022-11-29T19:06:40.457Z,2.62
2022-11-29T19:12:23.386Z,2.70
2022-11-29T19:14:50.386Z,2.69
2022-11-29T19:17:43.500Z,2.59
2022-11-29T19:23:27.472Z,2.50
2022-11-29T19:26:34.626Z,2.50
2022-11-29T19:29:01.905Z,2.50
2022-11-29T19:31:29.138Z,2.48
2022-11-29T19:33:57.359Z,2.51
2022-11-29T19:36:32.128Z,2.51
2022-11-29T19:50:22.271Z,2.62
2022-11-29T19:52:49.037Z,2.62
2022-11-29T19:55:16.214Z,2.66
2022-11-29T19:57:43.359Z,2.75
2022-11-29T20:00:16.150Z,2.82
2022-11-29T20:02:42.884Z,2.89
2022-11-29T20:05:12.748Z,2.92
2022-11-29T20:07:39.637Z,2.88
2022-11-29T20:10:08.185Z,2.88
2022-11-29T20:12:34.877Z,2.88
2022-11-29T20:15:01.714Z,2.90
2022-11-29T20:17:28.937Z,2.92
2022-11-29T20:19:55.705Z,2.86
2022-11-29T20:22:23.205Z,2.81
2022-11-29T20:24:50.241Z,2.79
2022-11-29T20:27:17.165Z,2.81
2022-11-29T20:29:44.190Z,2.85
2022-11-29T20:32:11.486Z,2.88
2022-11-29T20:34:38.806Z,2.91
2022-11-29T20:37:28.425Z,2.88
2022-11-29T20:40:02.650Z,2.81
2022-11-29T20:42:29.656Z,2.78
2022-11-29T20:44:57.497Z,2.75
2022-11-29T20:47:26.666Z,2.74
2022-11-29T20:49:54.681Z,2.76
2022-11-29T20:52:38.657Z,2.76
2022-11-29T20:55:05.936Z,2.81
2022-11-29T20:57:32.762Z,2.85
2022-11-29T20:59:59.727Z,2.93
2022-11-29T21:02:26.645Z,3.00
2022-11-29T21:04:53.593Z,3.06
2022-11-29T21:07:20.556Z,3.03
2022-11-29T21:09:47.289Z,3.03
2022-11-29T21:12:14.721Z,3.06
2022-11-29T21:14:41.674Z,3.08
2022-11-29T21:17:09.152Z,3.07
2022-11-29T21:19:36.333Z,3.05
2022-11-29T21:22:20.590Z,2.96
2022-11-29T21:25:19.836Z,2.88
2022-11-29T21:27:49.354Z,2.86
2022-11-29T21:30:24.842Z,2.88
2022-11-29T21:32:52.246Z,2.88
2022-11-29T21:35:19.611Z,2.86
2022-11-29T21:37:46.549Z,2.85
2022-11-29T21:40:14.612Z,2.86
2022-11-29T21:42:41.277Z,2.84
2022-11-29T21:45:14.848Z,2.81
2022-11-29T21:47:44.269Z,2.81
2022-11-29T21:50:12.644Z,2.80
2022-11-29T21:52:40.104Z,2.78
2022-11-29T21:55:07.145Z,2.80
2022-11-29T21:57:34.426Z,2.82
2022-11-29T22:00:01.234Z,2.82
2022-11-29T22:02:28.184Z,2.83
2022-11-29T22:04:54.939Z,2.83
2022-11-29T22:07:21.634Z,2.80
2022-11-29T22:09:48.352Z,2.80
2022-11-29T22:12:33.139Z,2.79
2022-11-29T22:15:01.170Z,2.75
2022-11-29T22:17:28.102Z,2.74
2022-11-29T22:19:54.796Z,2.75
2022-11-29T22:22:21.590Z,2.73
2022-11-29T22:24:48.614Z,2.69
2022-11-29T22:27:17.910Z,2.67
2022-11-29T22:29:45.185Z,2.67
2022-11-29T22:32:12.039Z,2.68
2022-11-29T22:34:38.666Z,2.63
2022-11-29T22:37:05.917Z,2.55
2022-11-29T22:39:32.856Z,2.52
2022-11-29T22:41:59.585Z,2.54
2022-11-29T22:44:26.192Z,2.59
2022-11-29T22:46:53.041Z,2.62
2022-11-29T22:49:19.818Z,2.68
2022-11-29T22:51:46.980Z,2.66
2022-11-29T22:54:16.486Z,2.69
2022-11-29T22:56:44.282Z,2.70
2022-11-29T22:59:11.923Z,2.71
2022-11-29T23:01:40.752Z,2.74
2022-11-29T23:04:09.360Z,2.77
2022-11-29T23:06:38.683Z,2.76
2022-11-29T23:09:12.434Z,2.69
2022-11-29T23:11:39.165Z,2.70
2022-11-29T23:14:05.883Z,2.67
2022-11-29T23:16:33.628Z,2.60
2022-11-29T23:19:02.726Z,2.64
2022-11-29T23:21:31.749Z,2.68
2022-11-29T23:24:00.971Z,2.68
2022-11-29T23:26:39.735Z,2.68
2022-11-29T23:29:08.947Z,2.63
2022-11-29T23:31:35.821Z,2.62
2022-11-29T23:34:03.080Z,2.58
2022-11-29T23:36:30.015Z,2.56
2022-11-29T23:38:56.727Z,2.58
2022-11-29T23:41:23.476Z,2.56
2022-11-29T23:43:50.324Z,2.56
2022-11-29T23:46:20.646Z,2.59
2022-11-29T23:48:48.293Z,2.58
2022-11-29T23:51:15.560Z,2.55
2022-11-29T23:53:44.963Z,2.52
2022-11-29T23:56:14.673Z,2.49
2022-11-29T23:58:41.691Z,2.45
